Holladay, Utah
Current Conditions -  °F | °C
As of 10:53 PM on Friday 28 Nov 2014 (Local Time) from KSLC Reporting Station
Broken Clouds Broken Clouds  
Wind Chill: 59°   Ceiling: 20000
Heat Index: 59°   Visibility: 10mi
Dew Point: 12°   Wind: 24mph
Humidity: 16%   Direction: 170°S
Pressure: 29.75"   Gusts: 35mph
Location:  40.6239°N, 111.817°W
Report Text: KSLC 290553Z 17021G30KT 10SM SCT150 BKN200 15/M11 A2975 RMK AO2 PK WND 16031/0457 SLP042 T01501111 10161 20128 56010
Loading
Personal Weather Stations






























Interactive Weather Map New forecast layout! Learn more

10-Day Weather Forecast

Advertisements
Track Severe Weather on mobile